Parker, Idaho
Current Conditions -  °F | °C
As of 5:53 AM on Thursday 18 Dec 2014 (Local Time) from KRXE Reporting Station
Haze Haze  
Wind Chill: -3°   Ceiling: 1500
Heat Index: -3°   Visibility: 6mi
Dew Point: -3°   Wind: 0mph
Humidity: 100%   Direction: NA
Pressure: 30.08"   Gusts: NA
Location:  43.96°N, 111.76°W
Report Text: KRXE 181253Z AUTO 00000KT 6SM BR OVC015 M03/M03 A3008 RMK AO2 SLP218 T10281028
Loading
Personal Weather Stations






























Interactive Weather Map New forecast layout! Learn more

10-Day Weather Forecast

Advertisements
Track Severe Weather on mobile